createdAt,value
2023-08-14T00:01:20.587Z,99.90
2023-08-14T00:03:47.347Z,99.90
2023-08-14T00:06:14.037Z,99.90
2023-08-14T00:08:40.730Z,99.90
2023-08-14T00:11:07.405Z,99.90
2023-08-14T00:13:49.885Z,99.90
2023-08-14T00:16:17.197Z,99.90
2023-08-14T00:18:44.115Z,99.90
2023-08-14T00:21:11.073Z,99.90
2023-08-14T00:23:37.843Z,99.90
2023-08-14T00:26:04.728Z,99.90
2023-08-14T00:28:31.730Z,99.90
2023-08-14T00:30:58.413Z,99.90
2023-08-14T00:33:25.095Z,99.90
2023-08-14T00:35:51.781Z,99.90
2023-08-14T00:38:18.489Z,99.90
2023-08-14T00:40:45.363Z,99.90
2023-08-14T00:43:12.049Z,99.90
2023-08-14T00:45:46.197Z,99.90
2023-08-14T00:48:15.259Z,99.90
2023-08-14T00:50:43.200Z,99.90
2023-08-14T00:53:11.439Z,99.90
2023-08-14T00:55:38.635Z,99.90
2023-08-14T00:58:06.592Z,99.90
2023-08-14T01:00:36.388Z,99.90
2023-08-14T01:03:03.939Z,99.90
2023-08-14T01:05:32.536Z,99.90
2023-08-14T01:07:59.291Z,99.90
2023-08-14T01:10:43.909Z,99.90
2023-08-14T01:13:41.556Z,99.90
2023-08-14T01:16:14.321Z,99.90
2023-08-14T01:18:43.527Z,99.90
2023-08-14T01:21:12.429Z,99.90
2023-08-14T01:23:56.267Z,99.90
2023-08-14T01:26:24.073Z,99.90
2023-08-14T01:28:51.528Z,99.90
2023-08-14T01:31:18.244Z,99.90
2023-08-14T01:33:44.938Z,99.90
2023-08-14T01:36:37.352Z,99.90
2023-08-14T01:39:11.055Z,99.90
2023-08-14T01:42:11.442Z,99.90
2023-08-14T01:44:41.536Z,99.90
2023-08-14T01:47:13.010Z,99.90
2023-08-14T01:49:41.301Z,99.90
2023-08-14T01:52:08.788Z,99.90
2023-08-14T01:54:35.539Z,99.90
2023-08-14T01:57:02.775Z,99.90
2023-08-14T01:59:43.272Z,99.90
2023-08-14T02:02:12.282Z,99.90
2023-08-14T02:04:39.041Z,99.90
2023-08-14T02:07:12.286Z,99.90
2023-08-14T02:09:39.373Z,99.90
2023-08-14T02:12:06.502Z,99.90
2023-08-14T02:14:33.246Z,99.90
2023-08-14T02:16:59.969Z,99.90
2023-08-14T02:19:26.642Z,99.90
2023-08-14T02:21:53.308Z,99.90
2023-08-14T02:24:19.994Z,99.90
2023-08-14T02:26:46.660Z,99.90
2023-08-14T02:29:13.499Z,99.90
2023-08-14T02:31:41.027Z,99.90
2023-08-14T02:34:07.781Z,99.90
2023-08-14T02:36:34.440Z,99.90
2023-08-14T02:39:01.113Z,99.90
2023-08-14T02:41:29.541Z,99.90
2023-08-14T02:43:56.258Z,99.90
2023-08-14T02:46:22.965Z,99.90
2023-08-14T02:48:49.624Z,99.90
2023-08-14T02:51:16.581Z,99.90
2023-08-14T02:53:43.271Z,99.90
2023-08-14T02:56:09.962Z,99.90
2023-08-14T02:58:36.917Z,99.90
2023-08-14T03:01:05.276Z,99.90
2023-08-14T03:03:32.052Z,99.90
2023-08-14T03:05:59.497Z,99.90
2023-08-14T03:08:26.984Z,99.90
2023-08-14T03:10:54.354Z,99.90
2023-08-14T03:13:21.221Z,99.90
2023-08-14T03:15:48.082Z,99.90
2023-08-14T03:18:14.780Z,99.90
2023-08-14T03:20:41.497Z,99.90
2023-08-14T03:23:08.238Z,99.90
2023-08-14T03:25:34.963Z,99.90
2023-08-14T03:28:01.657Z,99.90
2023-08-14T03:30:28.342Z,99.90
2023-08-14T03:32:55.043Z,99.90
2023-08-14T03:35:21.836Z,99.90
2023-08-14T03:37:48.505Z,99.90
2023-08-14T03:40:15.969Z,99.90
2023-08-14T03:42:42.858Z,99.90
2023-08-14T03:45:10.026Z,99.90
2023-08-14T03:47:36.806Z,99.90
2023-08-14T03:50:04.239Z,99.90
2023-08-14T03:52:30.887Z,99.90
2023-08-14T03:54:57.556Z,99.90
2023-08-14T03:57:24.414Z,99.90
2023-08-14T03:59:51.224Z,99.90
2023-08-14T04:02:18.258Z,99.90
2023-08-14T04:04:45.528Z,99.90
2023-08-14T04:07:12.205Z,99.90
2023-08-14T04:09:38.935Z,99.90
2023-08-14T04:12:05.945Z,99.90
2023-08-14T04:14:34.044Z,99.90
2023-08-14T04:17:00.722Z,99.90
2023-08-14T04:19:27.951Z,99.90
2023-08-14T04:21:54.690Z,99.90
2023-08-14T04:24:21.440Z,99.90
2023-08-14T04:26:48.099Z,99.90
2023-08-14T04:29:16.496Z,99.90
2023-08-14T04:31:43.412Z,99.90
2023-08-14T04:34:11.489Z,99.90
2023-08-14T04:36:38.429Z,99.90
2023-08-14T04:39:05.874Z,99.90
2023-08-14T04:41:32.690Z,99.90
2023-08-14T04:43:59.388Z,99.90
2023-08-14T04:46:41.243Z,99.90
2023-08-14T04:49:11.986Z,99.90
2023-08-14T04:51:38.693Z,99.90
2023-08-14T04:54:05.566Z,99.90
2023-08-14T04:56:32.700Z,99.90
2023-08-14T04:58:59.521Z,99.90
2023-08-14T05:01:26.284Z,99.90
2023-08-14T05:03:53.185Z,99.90
2023-08-14T05:06:20.632Z,99.90
2023-08-14T05:08:47.306Z,99.90
2023-08-14T05:11:13.945Z,99.90
2023-08-14T05:13:45.274Z,99.90
2023-08-14T05:16:12.106Z,99.90
2023-08-14T05:18:38.971Z,99.90
2023-08-14T05:21:05.766Z,99.90
2023-08-14T05:23:32.424Z,99.90
2023-08-14T05:25:59.154Z,99.90
2023-08-14T05:28:25.919Z,99.90
2023-08-14T05:30:52.857Z,99.90
2023-08-14T05:33:19.496Z,99.90
2023-08-14T05:35:49.726Z,99.90
2023-08-14T05:38:16.465Z,99.90
2023-08-14T05:40:43.160Z,99.90
2023-08-14T05:43:12.687Z,99.90
2023-08-14T05:45:42.190Z,99.90
2023-08-14T05:48:08.958Z,99.90
2023-08-14T05:50:36.598Z,99.90
2023-08-14T05:53:05.036Z,99.90
2023-08-14T05:55:43.676Z,99.90
2023-08-14T05:58:10.511Z,99.90
2023-08-14T06:00:38.203Z,99.90
2023-08-14T06:03:05.612Z,99.90
2023-08-14T06:05:35.338Z,99.90
2023-08-14T06:08:02.423Z,99.90
2023-08-14T06:10:29.271Z,99.90
2023-08-14T06:12:56.079Z,99.90
2023-08-14T06:15:22.957Z,99.90
2023-08-14T06:17:50.094Z,99.90
2023-08-14T06:20:17.036Z,99.90
2023-08-14T06:22:45.809Z,99.90
2023-08-14T06:25:13.549Z,99.90
2023-08-14T06:27:41.227Z,99.90
2023-08-14T06:30:10.202Z,99.90
2023-08-14T06:32:38.323Z,99.90
2023-08-14T06:35:06.047Z,99.90
2023-08-14T06:37:33.071Z,99.90
2023-08-14T06:39:59.711Z,99.90
2023-08-14T06:42:26.474Z,99.90
2023-08-14T06:44:53.157Z,99.90
2023-08-14T06:47:19.858Z,99.90
2023-08-14T06:49:46.622Z,99.90
2023-08-14T06:52:14.760Z,99.90
2023-08-14T06:54:41.626Z,99.90
2023-08-14T06:57:09.195Z,99.90
2023-08-14T06:59:36.128Z,99.90
2023-08-14T07:02:02.887Z,99.90
2023-08-14T07:04:29.659Z,99.90
2023-08-14T07:06:56.424Z,99.90
2023-08-14T07:09:23.127Z,99.90
2023-08-14T07:11:49.860Z,99.90
2023-08-14T07:14:16.564Z,99.90
2023-08-14T07:16:43.355Z,99.90
2023-08-14T07:19:10.121Z,99.90
2023-08-14T07:21:36.807Z,99.90
2023-08-14T07:24:03.712Z,99.90
2023-08-14T07:26:30.416Z,99.90
2023-08-14T07:28:57.167Z,99.90
2023-08-14T07:31:24.062Z,99.90
2023-08-14T07:33:50.817Z,99.90
2023-08-14T07:36:17.618Z,99.90
2023-08-14T07:38:44.624Z,99.90
2023-08-14T07:41:11.450Z,99.90
2023-08-14T07:43:38.225Z,99.90
2023-08-14T07:46:04.916Z,99.90
2023-08-14T07:48:31.680Z,99.90
2023-08-14T07:50:58.369Z,99.90
2023-08-14T07:53:25.079Z,99.90
2023-08-14T07:55:51.831Z,99.90
2023-08-14T07:58:19.496Z,99.90
2023-08-14T08:00:46.559Z,99.90
2023-08-14T08:03:13.610Z,99.90
2023-08-14T08:05:40.560Z,99.90
2023-08-14T08:08:07.390Z,99.90
2023-08-14T08:10:34.749Z,99.90
2023-08-14T08:13:01.713Z,99.90
2023-08-14T08:15:28.356Z,99.90
2023-08-14T08:17:57.898Z,99.90
2023-08-14T08:20:25.736Z,99.90
2023-08-14T08:22:53.906Z,99.90
2023-08-14T08:25:20.737Z,99.90
2023-08-14T08:27:47.899Z,99.90
2023-08-14T08:30:14.717Z,99.90
2023-08-14T08:32:41.617Z,99.90
2023-08-14T08:35:09.018Z,99.90
2023-08-14T08:37:35.790Z,99.90
2023-08-14T08:40:05.510Z,99.90
2023-08-14T08:42:32.549Z,99.90
2023-08-14T08:45:03.753Z,99.90
2023-08-14T08:47:32.181Z,99.90
2023-08-14T08:50:04.555Z,99.90
2023-08-14T08:52:33.950Z,99.90
2023-08-14T08:55:02.327Z,99.90
2023-08-14T08:57:29.804Z,99.90
2023-08-14T08:59:59.761Z,99.90
2023-08-14T09:02:27.257Z,99.90
2023-08-14T09:04:54.191Z,99.90
2023-08-14T09:07:21.083Z,99.90
2023-08-14T09:09:47.846Z,99.90
2023-08-14T09:12:14.573Z,99.90
2023-08-14T09:14:43.562Z,99.90
2023-08-14T09:17:11.680Z,99.90
2023-08-14T09:19:41.444Z,99.90
2023-08-14T09:22:08.617Z,99.90
2023-08-14T09:24:36.653Z,99.90
2023-08-14T09:27:04.142Z,99.90
2023-08-14T09:29:32.287Z,99.90
2023-08-14T09:32:00.297Z,99.90
2023-08-14T09:34:27.173Z,99.90
2023-08-14T09:36:56.266Z,99.90
2023-08-14T09:39:24.790Z,99.90
2023-08-14T09:41:51.548Z,99.90
2023-08-14T09:44:23.795Z,99.90
2023-08-14T09:46:55.809Z,99.90
2023-08-14T09:49:23.050Z,99.90
2023-08-14T09:52:00.029Z,99.90
2023-08-14T09:54:35.420Z,99.90
2023-08-14T09:57:08.474Z,99.90
2023-08-14T09:59:36.793Z,99.70
2023-08-14T10:02:06.453Z,97.30
2023-08-14T10:04:35.439Z,95.20
2023-08-14T10:07:03.267Z,94.60
2023-08-14T10:09:32.159Z,94.00
2023-08-14T10:12:07.191Z,94.30
2023-08-14T10:14:36.862Z,94.20
2023-08-14T10:17:07.557Z,93.20
2023-08-14T10:19:35.514Z,92.40
2023-08-14T10:22:07.241Z,91.10
2023-08-14T10:24:37.989Z,91.80
2023-08-14T10:27:06.126Z,91.80
2023-08-14T10:29:35.384Z,92.20
2023-08-14T10:32:03.197Z,91.60
2023-08-14T10:34:31.761Z,92.10
2023-08-14T10:36:58.485Z,92.00
2023-08-14T10:39:36.340Z,92.30
2023-08-14T10:42:10.132Z,92.10
2023-08-14T10:44:38.437Z,93.40
2023-08-14T10:47:11.779Z,93.70
2023-08-14T10:49:50.715Z,94.50
2023-08-14T10:52:20.128Z,93.80
2023-08-14T10:54:53.825Z,91.30
2023-08-14T10:57:28.524Z,89.60
2023-08-14T10:59:56.913Z,89.20
2023-08-14T11:02:25.955Z,86.90
2023-08-14T11:05:02.750Z,80.20
2023-08-14T11:07:34.098Z,83.60
2023-08-14T11:10:04.986Z,84.50
2023-08-14T11:12:35.508Z,81.30
2023-08-14T11:15:02.450Z,80.20
2023-08-14T11:17:29.325Z,79.00
2023-08-14T11:19:56.067Z,79.70
2023-08-14T11:22:23.317Z,75.20
2023-08-14T11:24:50.038Z,74.90
2023-08-14T11:27:16.808Z,74.60
2023-08-14T11:29:45.371Z,75.60
2023-08-14T11:32:19.418Z,75.60
2023-08-14T11:34:46.536Z,71.00
2023-08-14T11:37:13.948Z,70.40
2023-08-14T11:39:43.847Z,70.90
2023-08-14T11:42:10.512Z,74.50
2023-08-14T11:44:37.275Z,71.40
2023-08-14T11:47:04.680Z,71.80
2023-08-14T11:49:35.203Z,70.80
2023-08-14T11:52:04.359Z,70.20
2023-08-14T11:54:32.944Z,69.50
2023-08-14T11:57:03.759Z,68.70
2023-08-14T11:59:30.755Z,66.50
2023-08-14T12:01:57.975Z,67.00
2023-08-14T12:04:24.631Z,68.40
2023-08-14T12:06:51.346Z,67.50
2023-08-14T12:09:18.190Z,68.80
2023-08-14T12:11:46.013Z,67.30
2023-08-14T12:14:12.677Z,66.40
2023-08-14T12:16:40.850Z,64.10
2023-08-14T12:19:13.435Z,63.90
2023-08-14T12:21:40.642Z,65.30
2023-08-14T12:24:07.846Z,64.20
2023-08-14T12:26:41.561Z,61.30
2023-08-14T12:29:08.960Z,62.10
2023-08-14T12:31:36.282Z,63.10
2023-08-14T12:34:06.994Z,62.60
2023-08-14T12:36:35.378Z,62.50
2023-08-14T12:39:02.206Z,61.70
2023-08-14T12:41:29.051Z,59.60
2023-08-14T12:43:55.971Z,59.10
2023-08-14T12:46:22.734Z,57.70
2023-08-14T12:48:49.464Z,56.50
2023-08-14T12:51:16.160Z,56.30
2023-08-14T12:53:42.858Z,56.40
2023-08-14T12:56:09.953Z,56.40
2023-08-14T12:58:36.648Z,57.40
2023-08-14T13:01:05.468Z,57.60
2023-08-14T13:06:02.879Z,56.10
2023-08-14T13:08:29.697Z,56.00
2023-08-14T13:10:56.469Z,54.40
2023-08-14T13:13:25.071Z,53.80
2023-08-14T13:15:52.108Z,54.80
2023-08-14T13:18:18.871Z,53.60
2023-08-14T13:20:45.603Z,54.70
2023-08-14T13:23:12.266Z,53.10
2023-08-14T13:25:42.414Z,54.00
2023-08-14T13:28:10.167Z,52.80
2023-08-14T13:30:37.028Z,53.10
2023-08-14T13:33:04.180Z,54.70
2023-08-14T13:35:31.348Z,53.40
2023-08-14T13:37:59.333Z,54.20
2023-08-14T13:40:26.080Z,51.80
2023-08-14T13:42:52.857Z,51.90
2023-08-14T13:45:19.632Z,51.20
2023-08-14T13:47:54.643Z,49.90
2023-08-14T13:52:54.080Z,49.30
2023-08-14T13:55:20.999Z,50.40
2023-08-14T13:57:47.644Z,48.70
2023-08-14T14:00:14.492Z,50.10
2023-08-14T14:02:41.251Z,48.40
2023-08-14T14:05:08.230Z,49.20
2023-08-14T14:07:45.725Z,48.10
2023-08-14T14:10:13.714Z,49.50
2023-08-14T14:12:47.531Z,49.30
2023-08-14T14:15:22.848Z,48.20
2023-08-14T14:17:49.566Z,47.90
2023-08-14T14:20:16.821Z,47.90
2023-08-14T14:22:43.922Z,49.30
2023-08-14T14:25:10.951Z,47.90
2023-08-14T14:27:38.479Z,47.20
2023-08-14T14:30:06.303Z,44.70
2023-08-14T14:32:33.128Z,44.20
2023-08-14T14:34:59.861Z,43.80
2023-08-14T14:37:26.544Z,42.40
2023-08-14T14:39:53.305Z,41.20
2023-08-14T14:42:20.731Z,41.90
2023-08-14T14:44:48.001Z,43.00
2023-08-14T14:47:14.822Z,41.00
2023-08-14T14:49:41.529Z,41.00
2023-08-14T14:52:08.201Z,39.80
2023-08-14T14:54:34.850Z,40.20
2023-08-14T14:57:01.506Z,40.90
2023-08-14T14:59:28.224Z,41.00
2023-08-14T15:01:54.961Z,42.20
2023-08-14T15:04:21.873Z,43.00
2023-08-14T15:06:48.860Z,45.60
2023-08-14T15:09:15.589Z,46.90
2023-08-14T15:11:42.230Z,48.70
2023-08-14T15:14:09.000Z,49.60
2023-08-14T15:16:35.692Z,50.40
2023-08-14T15:19:02.348Z,53.30
2023-08-14T15:21:34.883Z,54.30
2023-08-14T15:24:01.777Z,53.70
2023-08-14T15:26:28.515Z,54.80
2023-08-14T15:28:55.212Z,55.30
2023-08-14T15:31:21.855Z,54.60
2023-08-14T15:33:50.404Z,57.10
2023-08-14T15:36:18.935Z,56.00
2023-08-14T15:38:46.391Z,56.70
2023-08-14T15:41:13.200Z,59.70
2023-08-14T15:43:41.969Z,59.20
2023-08-14T15:46:08.734Z,60.40
2023-08-14T15:48:35.425Z,60.00
2023-08-14T15:51:02.054Z,59.00
2023-08-14T15:53:28.699Z,57.60
2023-08-14T15:55:55.369Z,58.50
2023-08-14T15:58:22.020Z,60.20
2023-08-14T16:00:48.846Z,58.40
2023-08-14T16:03:15.512Z,58.70
2023-08-14T16:05:42.194Z,60.80
2023-08-14T16:08:08.871Z,61.50
2023-08-14T16:10:35.651Z,61.70
2023-08-14T16:13:02.320Z,63.10
2023-08-14T16:15:28.991Z,62.50
2023-08-14T16:17:55.706Z,60.40
2023-08-14T16:20:22.395Z,59.50
2023-08-14T16:22:49.536Z,61.60
2023-08-14T16:25:16.224Z,62.40
2023-08-14T16:27:42.879Z,61.00
2023-08-14T16:30:09.953Z,60.50
2023-08-14T16:32:36.612Z,63.60
2023-08-14T16:35:04.853Z,59.70
2023-08-14T16:37:31.549Z,59.70
2023-08-14T16:39:58.274Z,62.20
2023-08-14T16:42:24.976Z,64.10
2023-08-14T16:44:51.673Z,63.40
2023-08-14T16:47:18.681Z,63.70
2023-08-14T16:49:45.617Z,64.60
2023-08-14T16:52:12.270Z,65.80
2023-08-14T16:54:38.911Z,67.60
2023-08-14T16:57:06.146Z,70.20
2023-08-14T16:59:32.998Z,72.20
2023-08-14T17:01:59.738Z,74.90
2023-08-14T17:04:27.605Z,77.20
2023-08-14T17:06:54.376Z,78.90
2023-08-14T17:09:21.168Z,80.20
2023-08-14T17:11:47.833Z,81.70
2023-08-14T17:14:16.916Z,82.80
2023-08-14T17:16:43.705Z,84.50
2023-08-14T17:19:10.388Z,86.00
2023-08-14T17:21:37.291Z,87.30
2023-08-14T17:24:04.313Z,88.60
2023-08-14T17:26:30.961Z,90.00
2023-08-14T17:28:57.623Z,91.00
2023-08-14T17:31:24.389Z,92.00
2023-08-14T17:33:51.071Z,92.80
2023-08-14T17:36:18.206Z,93.40
2023-08-14T17:38:44.923Z,94.20
2023-08-14T17:41:11.653Z,94.80
2023-08-14T17:43:38.452Z,95.10
2023-08-14T17:46:05.246Z,95.60
2023-08-14T17:48:32.196Z,95.90
2023-08-14T17:50:58.906Z,96.50
2023-08-14T17:53:25.680Z,97.30
2023-08-14T17:55:52.416Z,98.20
2023-08-14T17:58:20.999Z,98.60
2023-08-14T18:00:52.571Z,99.00
2023-08-14T18:03:19.497Z,99.50
2023-08-14T18:05:50.535Z,99.90
2023-08-14T18:08:17.382Z,99.90
2023-08-14T18:10:44.332Z,99.90
2023-08-14T18:13:11.111Z,99.90
2023-08-14T18:15:39.060Z,99.90
2023-08-14T18:18:07.136Z,99.90
2023-08-14T18:20:33.973Z,99.90
2023-08-14T18:23:01.273Z,99.90
2023-08-14T18:25:28.173Z,99.90
2023-08-14T18:27:54.864Z,99.90
2023-08-14T18:30:21.576Z,99.90
2023-08-14T18:32:49.693Z,99.90
2023-08-14T18:35:16.381Z,99.90
2023-08-14T18:37:43.098Z,99.90
2023-08-14T18:40:10.580Z,99.90
2023-08-14T18:42:37.398Z,99.90
2023-08-14T18:45:04.434Z,99.90
2023-08-14T18:47:33.432Z,99.90
2023-08-14T18:50:00.242Z,99.90
2023-08-14T18:52:27.335Z,99.90
2023-08-14T18:54:54.004Z,99.90
2023-08-14T18:57:20.988Z,99.90
2023-08-14T18:59:48.610Z,99.90
2023-08-14T19:02:15.496Z,99.90
2023-08-14T19:04:43.994Z,99.90
2023-08-14T19:07:12.481Z,99.90
2023-08-14T19:09:39.271Z,99.90
2023-08-14T19:12:07.653Z,99.90
2023-08-14T19:14:35.266Z,99.90
2023-08-14T19:17:02.425Z,99.90
2023-08-14T19:19:29.190Z,99.90
2023-08-14T19:21:56.028Z,99.90
2023-08-14T19:24:22.710Z,99.90
2023-08-14T19:26:49.375Z,99.90
2023-08-14T19:29:16.052Z,99.90
2023-08-14T19:31:42.726Z,99.90
2023-08-14T19:34:09.495Z,99.90
2023-08-14T19:36:36.322Z,99.90
2023-08-14T19:39:03.827Z,99.90
2023-08-14T19:41:30.538Z,99.90
2023-08-14T19:43:57.988Z,99.90
2023-08-14T19:46:25.177Z,99.90
2023-08-14T19:48:52.000Z,99.90
2023-08-14T19:51:18.661Z,99.90
2023-08-14T19:53:45.421Z,99.90
2023-08-14T19:56:12.123Z,99.90
2023-08-14T19:58:38.777Z,99.90
2023-08-14T20:01:05.550Z,99.90
2023-08-14T20:03:32.476Z,99.90
2023-08-14T20:05:59.345Z,99.90
2023-08-14T20:08:26.410Z,99.90
2023-08-14T20:11:01.835Z,99.90
2023-08-14T20:13:28.648Z,99.90
2023-08-14T20:15:55.450Z,99.90
2023-08-14T20:18:22.943Z,99.90
2023-08-14T20:20:50.846Z,99.90
2023-08-14T20:23:17.628Z,99.90
2023-08-14T20:25:47.609Z,99.90
2023-08-14T20:28:14.526Z,99.90
2023-08-14T20:30:43.021Z,99.90
2023-08-14T20:33:11.359Z,99.90
2023-08-14T20:35:45.714Z,99.90
2023-08-14T20:38:13.381Z,99.90
2023-08-14T20:40:40.486Z,99.90
2023-08-14T20:43:12.887Z,99.90
2023-08-14T20:45:40.669Z,99.90
2023-08-14T20:48:10.889Z,99.90
2023-08-14T20:50:37.592Z,99.90
2023-08-14T20:53:05.062Z,99.90
2023-08-14T20:55:31.997Z,99.90
2023-08-14T20:57:58.782Z,99.90
2023-08-14T21:00:25.562Z,99.90
2023-08-14T21:02:52.510Z,99.90
2023-08-14T21:05:19.288Z,99.90
2023-08-14T21:07:45.996Z,99.90
2023-08-14T21:10:12.765Z,99.90
2023-08-14T21:12:39.493Z,99.90
2023-08-14T21:15:06.563Z,99.90
2023-08-14T21:17:33.256Z,99.90
2023-08-14T21:20:00.061Z,99.90
2023-08-14T21:22:26.690Z,99.90
2023-08-14T21:24:53.354Z,99.90
2023-08-14T21:27:20.278Z,99.90
2023-08-14T21:29:47.112Z,99.90
2023-08-14T21:32:13.874Z,99.90
2023-08-14T21:34:41.630Z,99.90
2023-08-14T21:37:08.746Z,99.90
2023-08-14T21:39:35.619Z,99.90
2023-08-14T21:42:02.395Z,99.90
2023-08-14T21:44:29.438Z,99.90
2023-08-14T21:46:56.244Z,99.90
2023-08-14T21:49:22.975Z,99.90
2023-08-14T21:51:49.681Z,99.90
2023-08-14T21:54:18.915Z,99.90
2023-08-14T21:56:46.457Z,99.90
2023-08-14T21:59:13.169Z,99.90
2023-08-14T22:01:40.113Z,99.90
2023-08-14T22:04:06.931Z,99.90
2023-08-14T22:06:33.694Z,99.90
2023-08-14T22:09:00.425Z,99.90
2023-08-14T22:11:27.585Z,99.90
2023-08-14T22:13:56.376Z,99.90
2023-08-14T22:16:24.276Z,99.90
2023-08-14T22:18:51.108Z,99.90
2023-08-14T22:21:18.139Z,99.90
2023-08-14T22:23:45.074Z,99.90
2023-08-14T22:26:11.720Z,99.90
2023-08-14T22:28:40.148Z,99.90
2023-08-14T22:31:07.577Z,99.90
2023-08-14T22:33:34.280Z,99.90
2023-08-14T22:36:00.981Z,99.90
2023-08-14T22:38:27.715Z,99.90
2023-08-14T22:40:54.397Z,99.90
2023-08-14T22:43:21.075Z,99.90
2023-08-14T22:48:19.453Z,99.90
2023-08-14T22:50:46.761Z,99.90
2023-08-14T22:53:13.489Z,99.90
2023-08-14T22:55:40.198Z,99.90
2023-08-14T22:58:06.858Z,99.90
2023-08-14T23:00:33.642Z,99.90
2023-08-14T23:03:00.411Z,99.90
2023-08-14T23:05:27.696Z,99.90
2023-08-14T23:07:54.438Z,99.90
2023-08-14T23:10:21.176Z,99.90
2023-08-14T23:12:47.994Z,99.90
2023-08-14T23:15:14.731Z,99.90
2023-08-14T23:17:41.455Z,99.90
2023-08-14T23:20:08.652Z,99.90
2023-08-14T23:22:35.349Z,99.90
2023-08-14T23:25:02.195Z,99.90
2023-08-14T23:27:28.960Z,99.90
2023-08-14T23:29:55.656Z,99.90
2023-08-14T23:32:22.399Z,99.90
2023-08-14T23:34:49.163Z,99.90
2023-08-14T23:37:15.843Z,99.90
2023-08-14T23:39:42.571Z,99.90
2023-08-14T23:42:09.309Z,99.90
2023-08-14T23:44:35.985Z,99.90
2023-08-14T23:47:04.457Z,99.90
2023-08-14T23:49:31.228Z,99.90
2023-08-14T23:51:57.922Z,99.90
2023-08-14T23:54:24.572Z,99.90
2023-08-14T23:56:51.261Z,99.90
2023-08-14T23:59:17.969Z,99.90
